Time;durP1;ratioP1;P1;durP2;ratioP2;P2;SDS_P1;SDS_P2;PMS_P1;PMS_P2;Temp;Humidity;BMP_temperature;BMP_pressure;BME280_temperature;BME280_humidity;BME280_pressure;Samples;Min_cycle;Max_cycle;Signal;HPM_P1;HPM_P2
2023/05/25 00:00:26;;;;;;;7.25;5.07;;;;;;;-140.66;100.00;55571.53;5094969;28;20027;-77
2023/05/25 00:03:13;;;;;;;9.35;5.28;;;;;;;-140.66;100.00;55571.53;5096922;27;20389;-77
2023/05/25 00:06:02;;;;;;;6.43;5.40;;;;;;;-140.66;100.00;55571.53;5095261;28;20062;-77
2023/05/25 00:08:50;;;;;;;9.35;5.35;;;;;;;-140.66;100.00;55571.53;5095517;28;20391;-77
2023/05/25 00:11:36;;;;;;;8.82;5.50;;;;;;;-140.66;100.00;55571.53;5081030;28;20436;-77
2023/05/25 00:14:21;;;;;;;9.73;5.22;;;;;;;-140.66;100.00;55571.53;5094872;28;20364;-78
2023/05/25 00:17:08;;;;;;;7.50;5.57;;;;;;;-140.66;100.00;55571.53;5080028;28;20064;-77
2023/05/25 00:19:56;;;;;;;10.10;6.10;;;;;;;-140.66;100.00;55571.53;5080485;28;20031;-77
2023/05/25 00:22:43;;;;;;;7.97;5.55;;;;;;;-140.66;100.00;55571.53;5074734;28;20099;-77
2023/05/25 00:25:29;;;;;;;7.28;5.72;;;;;;;-140.66;100.00;55571.53;5094208;28;20111;-78
2023/05/25 00:28:15;;;;;;;10.85;5.93;;;;;;;-140.66;100.00;55571.53;5107955;28;20057;-78
2023/05/25 00:31:01;;;;;;;9.15;5.80;;;;;;;-140.66;100.00;55571.53;5100763;28;20028;-78
2023/05/25 00:33:46;;;;;;;7.53;5.72;;;;;;;-140.66;100.00;55571.53;5114852;28;20085;-77
2023/05/25 00:36:32;;;;;;;8.75;5.55;;;;;;;-140.66;100.00;55571.53;5115843;28;20020;-78
2023/05/25 00:39:19;;;;;;;10.73;6.30;;;;;;;-140.66;100.00;55571.53;5115126;28;20077;-79
2023/05/25 00:42:06;;;;;;;8.45;6.20;;;;;;;-140.66;100.00;55571.53;5114960;28;20110;-77
2023/05/25 00:44:53;;;;;;;8.23;5.82;;;;;;;-140.66;100.00;55571.53;5101628;28;20082;-77
2023/05/25 00:47:40;;;;;;;9.20;5.95;;;;;;;-140.66;100.00;55571.53;5114135;28;20019;-77
2023/05/25 00:50:37;;;;;;;7.05;6.05;;;;;;;-140.66;100.00;55571.53;5114263;28;20173;-79
2023/05/25 00:53:23;;;;;;;8.27;5.75;;;;;;;-140.66;100.00;55571.53;5117468;28;20497;-77
2023/05/25 00:56:22;;;;;;;7.93;6.22;;;;;;;-140.66;100.00;55571.53;5135186;28;20031;-77
2023/05/25 00:59:10;;;;;;;6.68;5.85;;;;;;;-140.66;100.00;55571.53;5114651;28;20024;-77
2023/05/25 01:02:02;;;;;;;7.57;5.63;;;;;;;-140.66;100.00;55571.53;5114320;28;20481;-78
2023/05/25 01:04:52;;;;;;;7.30;5.97;;;;;;;-140.66;100.00;55571.53;5114172;28;20038;-78
2023/05/25 01:07:41;;;;;;;8.15;6.00;;;;;;;-140.66;100.00;55571.53;5113967;28;20039;-77
2023/05/25 01:10:30;;;;;;;8.88;6.13;;;;;;;-140.66;100.00;55571.53;5114391;28;20474;-78
2023/05/25 01:13:18;;;;;;;8.07;5.50;;;;;;;-140.66;100.00;55571.53;5117313;28;20371;-77
2023/05/25 01:16:05;;;;;;;8.80;6.05;;;;;;;-140.66;100.00;55571.53;5129858;28;20087;-78
2023/05/25 01:18:52;;;;;;;6.55;5.55;;;;;;;-140.66;100.00;55571.53;5099687;28;20028;-78
2023/05/25 01:21:53;;;;;;;8.60;5.82;;;;;;;-140.66;100.00;55571.53;5113896;28;20019;-78
2023/05/25 01:24:57;;;;;;;9.52;5.75;;;;;;;-140.66;100.00;55571.53;5086097;28;20468;-78
2023/05/25 01:27:47;;;;;;;7.18;5.40;;;;;;;-140.66;100.00;55571.53;5113703;28;20047;-78
2023/05/25 01:30:35;;;;;;;7.45;5.47;;;;;;;-140.66;100.00;55571.53;5099356;28;20359;-78
2023/05/25 01:33:22;;;;;;;7.93;5.47;;;;;;;-140.66;100.00;55571.53;5099406;28;20034;-77
2023/05/25 01:36:08;;;;;;;8.75;5.28;;;;;;;-140.66;100.00;55571.53;5114043;28;20039;-77
2023/05/25 01:38:54;;;;;;;6.95;5.68;;;;;;;-140.66;100.00;55571.53;5100497;28;20433;-78
2023/05/25 01:41:40;;;;;;;6.97;5.63;;;;;;;-140.66;100.00;55571.53;5099201;28;20066;-77
2023/05/25 01:44:27;;;;;;;9.43;5.57;;;;;;;-140.66;100.00;55571.53;5113950;28;20452;-77
2023/05/25 01:47:23;;;;;;;13.48;5.93;;;;;;;-140.66;100.00;55571.53;5099737;28;20027;-78
2023/05/25 01:50:22;;;;;;;7.70;5.88;;;;;;;-140.66;100.00;55571.53;5113503;28;20061;-78
2023/05/25 01:53:17;;;;;;;8.55;5.65;;;;;;;-140.66;100.00;55571.53;5099540;28;20125;-77
2023/05/25 01:56:08;;;;;;;7.07;5.10;;;;;;;-140.66;100.00;55571.53;5113901;28;20020;-78
2023/05/25 01:58:57;;;;;;;7.32;5.40;;;;;;;-140.66;100.00;55571.53;5113357;28;20031;-78
2023/05/25 02:01:44;;;;;;;10.45;5.70;;;;;;;-140.66;100.00;55571.53;5113338;28;20023;-77
2023/05/25 02:04:30;;;;;;;7.35;5.45;;;;;;;-140.66;100.00;55571.53;5113194;28;20444;-77
2023/05/25 02:07:16;;;;;;;7.80;5.55;;;;;;;-140.66;100.00;55571.53;5113528;28;20043;-78
2023/05/25 02:10:02;;;;;;;10.18;5.38;;;;;;;-140.66;100.00;55571.53;5113747;28;20446;-78
2023/05/25 02:12:47;;;;;;;6.82;5.22;;;;;;;-140.66;100.00;55571.53;5113176;28;20032;-78
2023/05/25 02:15:33;;;;;;;6.05;5.05;;;;;;;-140.66;100.00;55571.53;5114485;28;20122;-77
2023/05/25 02:18:19;;;;;;;7.60;5.43;;;;;;;-140.66;100.00;55571.53;5114765;28;20028;-78
2023/05/25 02:21:05;;;;;;;5.95;4.90;;;;;;;-140.66;100.00;55571.53;5113334;28;20116;-78
2023/05/25 02:23:52;;;;;;;7.90;5.50;;;;;;;-140.66;100.00;55571.53;5116798;28;20020;-77
2023/05/25 02:26:38;;;;;;;9.98;6.15;;;;;;;-140.66;100.00;55571.53;5116721;28;20443;-77
2023/05/25 02:29:24;;;;;;;8.35;5.18;;;;;;;-140.66;100.00;55571.53;5117187;28;20043;-78
2023/05/25 02:32:10;;;;;;;7.07;5.00;;;;;;;-140.66;100.00;55571.53;5118583;27;20023;-77
2023/05/25 02:34:55;;;;;;;6.03;5.18;;;;;;;-140.66;100.00;55571.53;5116663;28;20038;-78
2023/05/25 02:37:44;;;;;;;7.43;5.18;;;;;;;-140.66;100.00;55571.53;5116577;28;20112;-78
2023/05/25 02:40:30;;;;;;;9.63;5.82;;;;;;;-140.66;100.00;55571.53;5116840;28;20035;-76
2023/05/25 02:43:15;;;;;;;11.35;5.70;;;;;;;-140.66;100.00;55571.53;5117168;28;20030;-77
2023/05/25 02:46:01;;;;;;;9.30;5.68;;;;;;;-140.66;100.00;55571.53;5116830;28;20027;-77
2023/05/25 02:48:47;;;;;;;6.90;5.13;;;;;;;-140.66;100.00;55571.53;5102010;28;20020;-77
2023/05/25 02:51:33;;;;;;;10.85;6.13;;;;;;;-140.66;100.00;55571.53;5101871;28;20050;-77
2023/05/25 02:54:19;;;;;;;8.20;5.63;;;;;;;-140.66;100.00;55571.53;5116675;28;20113;-77
2023/05/25 02:57:05;;;;;;;8.25;5.47;;;;;;;-140.66;100.00;55571.53;5116473;28;20423;-78
2023/05/25 02:59:51;;;;;;;7.90;5.80;;;;;;;-140.66;100.00;55571.53;5120321;28;20478;-77
2023/05/25 03:02:37;;;;;;;12.68;6.20;;;;;;;-140.66;100.00;55571.53;5126130;28;20023;-77
2023/05/25 03:05:22;;;;;;;8.20;5.47;;;;;;;-140.66;100.00;55571.53;5122094;28;20015;-79
2023/05/25 03:08:08;;;;;;;9.90;5.57;;;;;;;-140.66;100.00;55571.53;5102422;28;20051;-79
2023/05/25 03:10:54;;;;;;;11.73;5.88;;;;;;;-140.66;100.00;55571.53;5101529;28;20110;-78
2023/05/25 03:13:40;;;;;;;8.55;5.57;;;;;;;-140.66;100.00;55571.53;5117189;28;20027;-78
2023/05/25 03:16:26;;;;;;;9.38;5.75;;;;;;;-140.66;100.00;55571.53;5101937;28;20332;-78
2023/05/25 03:19:12;;;;;;;7.97;6.03;;;;;;;-140.66;100.00;55571.53;5116845;28;20032;-78
2023/05/25 03:21:57;;;;;;;8.52;5.90;;;;;;;-140.66;100.00;55571.53;5117762;27;20312;-77
2023/05/25 03:24:43;;;;;;;9.23;6.20;;;;;;;-140.66;100.00;55571.53;5101916;28;20060;-77
2023/05/25 03:27:29;;;;;;;12.43;6.75;;;;;;;-140.66;100.00;55571.53;5101382;28;20044;-77
2023/05/25 03:30:15;;;;;;;10.18;6.28;;;;;;;-140.66;100.00;55571.53;5101792;28;20031;-77
2023/05/25 03:33:00;;;;;;;10.52;6.70;;;;;;;-140.66;100.00;55571.53;5127943;28;20035;-77
2023/05/25 03:35:46;;;;;;;10.85;6.25;;;;;;;-140.66;100.00;55571.53;5128055;28;20038;-77
2023/05/25 03:38:32;;;;;;;10.23;6.63;;;;;;;-140.66;100.00;55571.53;5116240;28;20023;-77
2023/05/25 03:41:18;;;;;;;8.63;6.65;;;;;;;-140.66;100.00;55571.53;5115546;28;20356;-78
2023/05/25 03:44:03;;;;;;;12.95;7.15;;;;;;;-140.66;100.00;55571.53;5116522;28;20031;-78
2023/05/25 03:46:49;;;;;;;12.25;7.10;;;;;;;-140.66;100.00;55571.53;5101115;28;20031;-77
2023/05/25 03:49:35;;;;;;;12.63;6.95;;;;;;;-140.66;100.00;55571.53;5115752;28;20507;-78
2023/05/25 03:52:21;;;;;;;10.82;7.03;;;;;;;-140.66;100.00;55571.53;5122961;28;20103;-77
2023/05/25 03:55:07;;;;;;;8.80;6.97;;;;;;;-140.66;100.00;55571.53;5127176;28;20027;-78
2023/05/25 03:57:52;;;;;;;10.18;6.80;;;;;;;-140.66;100.00;55571.53;5115653;28;20034;-78
2023/05/25 04:00:38;;;;;;;9.23;7.13;;;;;;;-140.66;100.00;55571.53;5115792;28;20036;-78
2023/05/25 04:03:24;;;;;;;15.40;7.20;;;;;;;-140.66;100.00;55571.53;5114872;28;20454;-79
2023/05/25 04:06:10;;;;;;;12.95;7.03;;;;;;;-140.66;100.00;55571.53;5101114;28;20038;-78
2023/05/25 04:08:56;;;;;;;9.05;6.28;;;;;;;-140.66;100.00;55571.53;5100904;28;20045;-77
2023/05/25 04:11:45;;;;;;;13.20;6.95;;;;;;;-140.66;100.00;55571.53;5115731;28;20077;-78
2023/05/25 04:14:31;;;;;;;11.30;6.80;;;;;;;-140.66;100.00;55571.53;5114829;28;20020;-78
2023/05/25 04:17:18;;;;;;;8.13;5.68;;;;;;;-140.66;100.00;55571.53;5114527;28;20027;-79
2023/05/25 04:20:04;;;;;;;17.33;6.90;;;;;;;-140.66;100.00;55571.53;5114793;28;20031;-78
2023/05/25 04:22:50;;;;;;;8.98;7.38;;;;;;;-140.66;100.00;55571.53;5114903;28;20439;-78
2023/05/25 04:25:36;;;;;;;10.27;6.50;;;;;;;-140.66;100.00;55571.53;5114643;28;20024;-78
2023/05/25 04:28:22;;;;;;;7.18;6.22;;;;;;;-140.66;100.00;55571.53;5114758;28;20059;-78
2023/05/25 04:31:08;;;;;;;8.00;6.43;;;;;;;-140.66;100.00;55571.53;5115710;28;20383;-78
2023/05/25 04:33:54;;;;;;;12.27;6.40;;;;;;;-140.66;100.00;55571.53;5099612;28;20043;-79
2023/05/25 04:36:42;;;;;;;11.02;6.82;;;;;;;-140.66;100.00;55571.53;5099940;28;20146;-78
2023/05/25 04:39:27;;;;;;;11.45;7.00;;;;;;;-140.66;100.00;55571.53;5114324;28;20035;-78
2023/05/25 04:42:13;;;;;;;11.85;6.78;;;;;;;-140.66;100.00;55571.53;5100313;28;20163;-78
2023/05/25 04:44:59;;;;;;;9.63;7.28;;;;;;;-140.66;100.00;55571.53;5114277;28;20019;-78
2023/05/25 04:47:46;;;;;;;10.95;7.50;;;;;;;-140.66;100.00;55571.53;5114661;28;20391;-78
2023/05/25 04:50:31;;;;;;;13.65;7.40;;;;;;;-140.66;100.00;55571.53;5114997;28;20034;-77
2023/05/25 04:53:17;;;;;;;9.65;7.05;;;;;;;-140.66;100.00;55571.53;5099800;28;20085;-78
2023/05/25 04:56:03;;;;;;;9.40;7.15;;;;;;;-140.66;100.00;55571.53;5099796;28;20046;-78
2023/05/25 04:58:49;;;;;;;13.98;7.55;;;;;;;-140.66;100.00;55571.53;5113925;28;20360;-79
2023/05/25 05:01:39;;;;;;;9.85;7.47;;;;;;;-140.66;100.00;55571.53;5115225;28;20122;-78
2023/05/25 05:04:25;;;;;;;12.45;7.53;;;;;;;-140.66;100.00;55571.53;5113773;28;20122;-78
2023/05/25 05:07:10;;;;;;;9.55;7.07;;;;;;;-140.66;100.00;55571.53;5114842;28;20444;-78
2023/05/25 05:09:56;;;;;;;10.57;7.28;;;;;;;-140.66;100.00;55571.53;5099543;28;20034;-77
2023/05/25 05:12:42;;;;;;;14.02;8.23;;;;;;;-140.66;100.00;55571.53;5100747;28;20023;-79
2023/05/25 05:15:28;;;;;;;10.90;8.52;;;;;;;-140.66;100.00;55571.53;5115197;28;20110;-78
2023/05/25 05:18:13;;;;;;;13.85;8.60;;;;;;;-140.66;100.00;55571.53;5114731;28;20027;-78
2023/05/25 05:20:59;;;;;;;13.43;8.73;;;;;;;-140.66;100.00;55571.53;5114851;28;20443;-78
2023/05/25 05:23:45;;;;;;;11.55;7.65;;;;;;;-140.66;100.00;55571.53;5113872;28;20070;-77
2023/05/25 05:26:31;;;;;;;11.25;7.00;;;;;;;-140.66;100.00;55571.53;5113784;28;20031;-78
2023/05/25 05:29:18;;;;;;;10.55;6.72;;;;;;;-140.66;100.00;55571.53;5115425;28;20185;-77
2023/05/25 05:32:04;;;;;;;11.88;7.03;;;;;;;-140.66;100.00;55571.53;5099785;28;20074;-78
2023/05/25 05:34:50;;;;;;;10.35;7.25;;;;;;;-140.66;100.00;55571.53;5114400;28;20016;-78
2023/05/25 05:37:36;;;;;;;10.93;7.35;;;;;;;-140.66;100.00;55571.53;5113964;28;20019;-78
2023/05/25 05:40:22;;;;;;;15.07;8.70;;;;;;;-140.66;100.00;55571.53;5099311;28;20035;-78
2023/05/25 05:43:11;;;;;;;9.82;8.07;;;;;;;-140.66;100.00;55571.53;5099675;28;20097;-78
2023/05/25 05:45:57;;;;;;;10.02;7.95;;;;;;;-140.66;100.00;55571.53;5113977;28;20466;-79
2023/05/25 05:48:43;;;;;;;14.50;7.93;;;;;;;-140.66;100.00;55571.53;5099371;28;20019;-78
2023/05/25 05:51:28;;;;;;;14.65;8.38;;;;;;;-140.66;100.00;55571.53;5099286;28;20043;-77
2023/05/25 05:54:14;;;;;;;8.82;7.32;;;;;;;-140.66;100.00;55571.53;5113824;28;20023;-78
2023/05/25 05:57:01;;;;;;;8.25;6.88;;;;;;;-140.66;100.00;55571.53;5115361;28;20027;-78
2023/05/25 05:59:46;;;;;;;9.35;7.30;;;;;;;-140.66;100.00;55571.53;5117330;28;20100;-78
2023/05/25 06:02:32;;;;;;;10.60;7.28;;;;;;;-140.66;100.00;55571.53;5117818;28;20032;-77
2023/05/25 06:05:19;;;;;;;11.02;8.07;;;;;;;-140.66;100.00;55571.53;5119843;27;20447;-78
2023/05/25 06:08:06;;;;;;;11.30;8.90;;;;;;;-140.66;100.00;55571.53;5117762;28;20457;-78
2023/05/25 06:10:52;;;;;;;12.95;8.10;;;;;;;-140.66;100.00;55571.53;5103157;28;20027;-79
2023/05/25 06:13:38;;;;;;;11.52;9.43;;;;;;;-140.66;100.00;55571.53;5117759;28;20039;-77
2023/05/25 06:16:24;;;;;;;12.07;9.05;;;;;;;-140.66;100.00;55571.53;5117567;28;20034;-78
2023/05/25 06:19:10;;;;;;;14.90;9.77;;;;;;;-140.66;100.00;55571.53;5118413;28;20046;-77
2023/05/25 06:21:56;;;;;;;17.20;10.13;;;;;;;-140.66;100.00;55571.53;5117368;28;20019;-80
2023/05/25 06:24:42;;;;;;;13.52;10.25;;;;;;;-140.66;100.00;55571.53;5118746;28;20019;-78
2023/05/25 06:27:28;;;;;;;14.73;9.82;;;;;;;-140.66;100.00;55571.53;5103202;28;20047;-79
2023/05/25 06:30:14;;;;;;;13.27;10.02;;;;;;;-140.66;100.00;55571.53;5117075;28;20066;-78
2023/05/25 06:32:59;;;;;;;13.88;9.55;;;;;;;-140.66;100.00;55571.53;5117391;28;20126;-78
2023/05/25 06:35:45;;;;;;;17.80;10.75;;;;;;;-140.66;100.00;55571.53;5118852;27;20107;-78
2023/05/25 06:38:31;;;;;;;18.00;10.50;;;;;;;-140.66;100.00;55571.53;5118470;28;20023;-78
2023/05/25 06:41:18;;;;;;;16.50;10.82;;;;;;;-140.66;100.00;55571.53;5117708;28;20092;-78
2023/05/25 06:44:04;;;;;;;14.15;10.90;;;;;;;-140.66;100.00;55571.53;5117215;28;20126;-78
2023/05/25 06:46:50;;;;;;;14.60;11.05;;;;;;;-140.66;100.00;55571.53;5118292;28;20198;-78
2023/05/25 06:49:36;;;;;;;15.20;10.82;;;;;;;-140.66;100.00;55571.53;5116942;28;20077;-78
2023/05/25 06:52:21;;;;;;;18.88;10.55;;;;;;;-140.66;100.00;55571.53;5103191;28;20024;-77
2023/05/25 06:55:08;;;;;;;15.57;9.73;;;;;;;-140.66;100.00;55571.53;5105267;28;20080;-78
2023/05/25 06:57:53;;;;;;;13.88;9.55;;;;;;;-140.66;100.00;55571.53;5117656;28;20020;-77
2023/05/25 07:00:40;;;;;;;12.25;8.82;;;;;;;-140.66;100.00;55571.53;5117531;28;20058;-78
2023/05/25 07:03:26;;;;;;;13.27;10.90;;;;;;;-140.66;100.00;55571.53;5116797;28;20023;-77
2023/05/25 07:06:11;;;;;;;11.77;9.73;;;;;;;-140.66;100.00;55571.53;5116557;28;20031;-78
2023/05/25 07:08:57;;;;;;;15.93;10.00;;;;;;;-140.66;100.00;55571.53;5116522;28;20092;-78
2023/05/25 07:11:43;;;;;;;15.80;9.63;;;;;;;-140.66;100.00;55571.53;5103414;28;20027;-78
2023/05/25 07:14:29;;;;;;;13.75;9.75;;;;;;;-140.66;100.00;55571.53;5123570;28;20039;-77
2023/05/25 07:17:15;;;;;;;13.38;9.77;;;;;;;-140.66;100.00;55571.53;5102184;28;20062;-77
2023/05/25 07:20:03;;;;;;;14.65;10.57;;;;;;;-140.66;100.00;55571.53;5116259;28;20027;-79
2023/05/25 07:22:49;;;;;;;13.45;8.90;;;;;;;-140.66;100.00;55571.53;5120493;28;20114;-78
2023/05/25 07:25:37;;;;;;;13.10;9.20;;;;;;;-140.66;100.00;55571.53;5109322;28;20035;-78
2023/05/25 07:28:23;;;;;;;18.35;10.98;;;;;;;-140.66;100.00;55571.53;5121651;28;20055;-77
2023/05/25 07:31:10;;;;;;;12.45;8.40;;;;;;;-140.66;100.00;55571.53;5115745;28;20015;-78
2023/05/25 07:33:56;;;;;;;13.63;8.88;;;;;;;-140.66;100.00;55571.53;5115903;28;20130;-78
2023/05/25 07:36:41;;;;;;;12.80;7.90;;;;;;;-140.66;100.00;55571.53;5115856;28;20024;-78
2023/05/25 07:39:27;;;;;;;11.90;7.78;;;;;;;-140.66;100.00;55571.53;5117470;28;20023;-79
2023/05/25 07:42:19;;;;;;;13.45;8.68;;;;;;;-140.66;100.00;55571.53;5115524;28;20107;-79
2023/05/25 07:45:06;;;;;;;13.75;8.75;;;;;;;-140.66;100.00;55571.53;5115898;28;20042;-78
2023/05/25 07:47:52;;;;;;;12.93;8.10;;;;;;;-140.66;100.00;55571.53;5101799;28;20059;-78
2023/05/25 07:50:37;;;;;;;10.50;6.90;;;;;;;-140.66;100.00;55571.53;5115340;28;20032;-78
2023/05/25 07:53:23;;;;;;;12.15;7.25;;;;;;;-140.66;100.00;55571.53;5100961;28;20107;-78
2023/05/25 07:56:09;;;;;;;9.05;6.38;;;;;;;-140.66;100.00;55571.53;5116729;28;20031;-79
2023/05/25 07:58:56;;;;;;;9.45;6.50;;;;;;;-140.66;100.00;55571.53;5115277;28;20028;-78
2023/05/25 08:01:42;;;;;;;7.90;6.13;;;;;;;-140.66;100.00;55571.53;5115198;28;20418;-78
2023/05/25 08:04:30;;;;;;;15.15;6.30;;;;;;;-140.66;100.00;55571.53;5115630;28;20019;-76
2023/05/25 08:07:18;;;;;;;10.40;6.03;;;;;;;-140.66;100.00;55571.53;5115694;28;20058;-78
2023/05/25 08:10:05;;;;;;;6.95;5.60;;;;;;;-140.66;100.00;55571.53;5115834;28;20031;-78
2023/05/25 08:12:50;;;;;;;6.88;5.05;;;;;;;-140.66;100.00;55571.53;5115234;28;20088;-78
2023/05/25 08:15:36;;;;;;;8.25;5.25;;;;;;;-140.66;100.00;55571.53;5114928;28;20028;-78
2023/05/25 08:18:22;;;;;;;21.65;6.32;;;;;;;-140.66;100.00;55571.53;5115605;28;20027;-79
2023/05/25 08:21:07;;;;;;;7.70;4.72;;;;;;;-140.66;100.00;55571.53;5114564;28;20443;-77
2023/05/25 08:23:53;;;;;;;11.15;6.20;;;;;;;-140.66;100.00;55571.53;5100416;28;20023;-77
2023/05/25 08:26:40;;;;;;;11.57;5.20;;;;;;;-140.66;100.00;55571.53;5100809;28;20131;-78
2023/05/25 08:29:25;;;;;;;7.13;5.57;;;;;;;-140.66;100.00;55571.53;5114851;28;20103;-78
2023/05/25 08:32:11;;;;;;;11.43;6.88;;;;;;;-140.66;100.00;55571.53;5115197;28;20064;-78
2023/05/25 08:34:57;;;;;;;9.85;6.68;;;;;;;-140.66;100.00;55571.53;5114935;28;20027;-78
2023/05/25 08:37:43;;;;;;;13.23;6.93;;;;;;;-140.66;100.00;55571.53;5114893;28;20023;-77
2023/05/25 08:40:29;;;;;;;14.23;6.28;;;;;;;-140.66;100.00;55571.53;5115638;28;20039;-78
2023/05/25 08:43:14;;;;;;;10.38;7.18;;;;;;;-140.66;100.00;55571.53;5100420;28;20038;-78
2023/05/25 08:46:05;;;;;;;13.93;6.70;;;;;;;-140.66;100.00;55571.53;5099987;28;20031;-78
2023/05/25 08:48:53;;;;;;;11.00;5.90;;;;;;;-140.66;100.00;55571.53;5115230;28;20051;-78
2023/05/25 08:51:48;;;;;;;19.58;6.10;;;;;;;-140.66;100.00;55571.53;5114593;28;20024;-79
2023/05/25 08:54:36;;;;;;;6.70;5.30;;;;;;;-140.66;100.00;55571.53;5100092;28;20027;-78
2023/05/25 08:57:21;;;;;;;17.13;5.60;;;;;;;-140.66;100.00;55571.53;5114752;28;20027;-79
2023/05/25 09:00:10;;;;;;;6.00;3.95;;;;;;;-140.66;100.00;55571.53;5099950;28;20031;-78
2023/05/25 09:03:06;;;;;;;15.02;4.03;;;;;;;-140.66;100.00;55571.53;5100237;28;20020;-79
2023/05/25 09:05:58;;;;;;;4.65;3.47;;;;;;;-140.66;100.00;55571.53;5100487;28;20432;-78
2023/05/25 09:08:44;;;;;;;18.10;4.13;;;;;;;-140.66;100.00;55571.53;5114519;28;20108;-78
2023/05/25 09:11:31;;;;;;;10.63;5.38;;;;;;;-140.66;100.00;55571.53;5100653;28;20039;-78
2023/05/25 09:14:18;;;;;;;6.90;4.00;;;;;;;-140.66;100.00;55571.53;5114759;28;20020;-77
2023/05/25 09:17:04;;;;;;;7.32;4.30;;;;;;;-140.66;100.00;55571.53;5115359;28;20088;-77
2023/05/25 09:19:50;;;;;;;9.43;4.60;;;;;;;-140.66;100.00;55571.53;5126288;28;20120;-79
2023/05/25 09:22:35;;;;;;;5.60;4.43;;;;;;;-140.66;100.00;55571.53;5108008;28;20372;-77
2023/05/25 09:25:24;;;;;;;7.40;4.85;;;;;;;-140.66;100.00;55571.53;5121020;28;20019;-80
2023/05/25 09:28:10;;;;;;;7.13;5.15;;;;;;;-140.66;100.00;55571.53;5100315;28;20071;-78
2023/05/25 09:30:56;;;;;;;6.40;4.80;;;;;;;-140.66;100.00;55571.53;5114972;28;20037;-78
2023/05/25 09:33:42;;;;;;;12.27;4.70;;;;;;;-140.66;100.00;55571.53;5118774;28;20055;-78
2023/05/25 09:36:28;;;;;;;8.60;4.88;;;;;;;-140.66;100.00;55571.53;5105577;28;20030;-78
2023/05/25 09:39:15;;;;;;;7.63;4.93;;;;;;;-140.66;100.00;55571.53;5120074;28;20037;-78
2023/05/25 09:42:01;;;;;;;8.23;4.72;;;;;;;-140.66;100.00;55571.53;5118089;28;20051;-78
2023/05/25 09:44:47;;;;;;;9.02;4.72;;;;;;;-140.66;100.00;55571.53;5118189;28;20052;-78
2023/05/25 09:47:35;;;;;;;10.27;4.88;;;;;;;-140.66;100.00;55571.53;5119305;28;20015;-78
2023/05/25 09:50:21;;;;;;;11.82;4.78;;;;;;;-140.66;100.00;55571.53;5103488;28;20038;-79
2023/05/25 09:53:07;;;;;;;8.55;4.88;;;;;;;-140.66;100.00;55571.53;5118063;28;20038;-78
2023/05/25 09:55:53;;;;;;;7.05;4.60;;;;;;;-140.66;100.00;55571.53;5118375;28;20028;-78
2023/05/25 09:58:40;;;;;;;6.05;4.50;;;;;;;-140.66;100.00;55571.53;5117583;28;20027;-78
2023/05/25 10:01:27;;;;;;;6.15;4.03;;;;;;;-140.66;100.00;55571.53;5117871;28;20074;-77
2023/05/25 10:04:15;;;;;;;6.82;3.88;;;;;;;-140.66;100.00;55571.53;5103519;28;20066;-78
2023/05/25 10:07:02;;;;;;;12.55;4.45;;;;;;;-140.66;100.00;55571.53;5117481;28;20055;-78
2023/05/25 10:09:52;;;;;;;8.00;3.97;;;;;;;-140.66;100.00;55571.53;5103553;28;20092;-78
2023/05/25 10:12:40;;;;;;;10.82;3.80;;;;;;;-140.66;100.00;55571.53;5117596;28;20027;-78
2023/05/25 10:15:27;;;;;;;9.52;4.47;;;;;;;-140.66;100.00;55571.53;5103499;28;20034;-79
2023/05/25 10:18:14;;;;;;;6.90;4.43;;;;;;;-140.66;100.00;55571.53;5103123;28;20031;-78
2023/05/25 10:21:03;;;;;;;12.13;4.63;;;;;;;-140.66;100.00;55571.53;5118188;28;20023;-77
2023/05/25 10:23:53;;;;;;;9.05;4.32;;;;;;;-140.66;100.00;55571.53;5125130;28;20061;-78
2023/05/25 10:26:41;;;;;;;9.18;4.60;;;;;;;-140.66;100.00;55571.53;5103229;28;20066;-78
2023/05/25 10:29:28;;;;;;;6.95;4.18;;;;;;;-140.66;100.00;55571.53;5117353;28;20036;-78
2023/05/25 10:32:16;;;;;;;7.55;4.43;;;;;;;-140.66;100.00;55571.53;5117119;28;20023;-79
2023/05/25 10:35:04;;;;;;;5.32;3.92;;;;;;;-140.66;100.00;55571.53;5117547;28;20028;-79
2023/05/25 10:37:51;;;;;;;5.97;3.85;;;;;;;-140.66;100.00;55571.53;5105530;28;20352;-79
2023/05/25 10:40:37;;;;;;;9.30;3.90;;;;;;;-140.66;100.00;55571.53;5117168;28;20027;-79
2023/05/25 10:43:24;;;;;;;6.43;3.97;;;;;;;-140.66;100.00;55571.53;5116096;28;20024;-78
2023/05/25 10:46:11;;;;;;;7.75;3.78;;;;;;;-140.66;100.00;55571.53;5121260;28;20356;-78
2023/05/25 10:49:01;;;;;;;8.88;4.28;;;;;;;-140.66;100.00;55571.53;5123961;28;20038;-78
2023/05/25 10:51:56;;;;;;;7.07;3.85;;;;;;;-140.66;100.00;55571.53;5102911;28;20023;-78
2023/05/25 10:54:43;;;;;;;11.98;4.13;;;;;;;-140.66;100.00;55571.53;5117296;28;20337;-78
2023/05/25 10:57:29;;;;;;;7.10;4.13;;;;;;;-140.66;100.00;55571.53;5102272;28;20363;-78
2023/05/25 11:00:15;;;;;;;8.70;4.05;;;;;;;-140.66;100.00;55571.53;5102016;28;20371;-79
2023/05/25 11:03:02;;;;;;;5.82;3.50;;;;;;;-140.66;100.00;55571.53;5116829;28;20352;-79
2023/05/25 11:05:50;;;;;;;6.93;4.20;;;;;;;-140.66;100.00;55571.53;5117602;28;20367;-79
2023/05/25 11:08:58;;;;;;;8.00;3.92;;;;;;;-140.66;100.00;55571.53;5117672;28;20036;-79
2023/05/25 11:11:48;;;;;;;7.90;3.92;;;;;;;-140.66;100.00;55571.53;5101603;28;20155;-78
2023/05/25 11:14:41;;;;;;;6.22;4.40;;;;;;;-140.66;100.00;55571.53;5117237;28;20470;-79
2023/05/25 11:17:31;;;;;;;7.78;4.80;;;;;;;-140.66;100.00;55571.53;5116197;28;20019;-79
2023/05/25 11:20:22;;;;;;;9.32;5.20;;;;;;;-140.66;100.00;55571.53;5116034;28;20031;-79
2023/05/25 11:23:23;;;;;;;5.28;4.45;;;;;;;-140.66;100.00;55571.53;5116031;28;20398;-79
2023/05/25 11:26:20;;;;;;;8.88;4.90;;;;;;;-140.66;100.00;55571.53;5101799;28;20039;-79
2023/05/25 11:29:14;;;;;;;6.13;4.20;;;;;;;-140.66;100.00;55571.53;5101748;28;20063;-78
2023/05/25 11:32:01;;;;;;;6.05;4.53;;;;;;;-140.66;100.00;55571.53;5101504;28;20023;-78
2023/05/25 11:34:47;;;;;;;10.13;4.40;;;;;;;-140.66;100.00;55571.53;5101808;28;20428;-78
2023/05/25 11:37:33;;;;;;;12.02;5.47;;;;;;;-140.66;100.00;55571.53;5117053;28;20035;-78
2023/05/25 11:40:22;;;;;;;8.00;4.68;;;;;;;-140.66;100.00;55571.53;5101110;28;20031;-79
2023/05/25 11:43:11;;;;;;;6.65;4.43;;;;;;;-140.66;100.00;55571.53;5101644;28;20103;-79
2023/05/25 11:45:59;;;;;;;7.70;4.68;;;;;;;-140.66;100.00;55571.53;5116543;28;20028;-78
2023/05/25 11:48:52;;;;;;;10.00;4.50;;;;;;;-140.66;100.00;55571.53;5116441;28;20448;-79
2023/05/25 11:51:38;;;;;;;5.93;4.40;;;;;;;-140.66;100.00;55571.53;5115365;28;20034;-78
2023/05/25 11:54:27;;;;;;;5.22;4.47;;;;;;;-140.66;100.00;55571.53;5116541;28;20032;-79
2023/05/25 11:57:18;;;;;;;5.68;4.32;;;;;;;-140.66;100.00;55571.53;5101187;28;20028;-78
2023/05/25 12:00:05;;;;;;;14.45;4.93;;;;;;;-140.66;100.00;55571.53;5101253;28;20110;-80
2023/05/25 12:02:51;;;;;;;17.67;5.10;;;;;;;-140.66;100.00;55571.53;5116544;28;20034;-79
2023/05/25 12:05:38;;;;;;;8.52;4.45;;;;;;;-140.66;100.00;55571.53;5114978;28;20027;-79
2023/05/25 12:08:36;;;;;;;13.20;4.80;;;;;;;-140.66;100.00;55571.53;5100941;28;20027;-78
2023/05/25 12:11:31;;;;;;;10.00;4.72;;;;;;;-140.66;100.00;55571.53;5114922;28;20039;-78
2023/05/25 12:14:17;;;;;;;8.75;4.60;;;;;;;-140.66;100.00;55571.53;5116319;28;20031;-78
2023/05/25 12:17:05;;;;;;;9.65;4.55;;;;;;;-140.66;100.00;55571.53;5116717;28;20046;-78
2023/05/25 12:19:51;;;;;;;7.85;4.32;;;;;;;-140.66;100.00;55571.53;5115015;28;20035;-78
2023/05/25 12:22:38;;;;;;;12.73;4.40;;;;;;;-140.66;100.00;55571.53;5114835;28;20035;-78
2023/05/25 12:25:24;;;;;;;5.75;4.10;;;;;;;-140.66;100.00;55571.53;5100733;28;20451;-78
2023/05/25 12:28:14;;;;;;;11.65;4.63;;;;;;;-140.66;100.00;55571.53;5114511;28;20052;-78
2023/05/25 12:31:28;;;;;;;17.35;5.75;;;;;;;-140.66;100.00;55571.53;5087704;28;20422;-79
2023/05/25 12:34:16;;;;;;;10.52;4.32;;;;;;;-140.66;100.00;55571.53;5116245;28;20378;-78